createdAt,value
2023-05-02T00:02:25.769Z,12.10
2023-05-02T00:04:52.784Z,12.10
2023-05-02T00:07:20.614Z,12.00
2023-05-02T00:09:47.547Z,12.00
2023-05-02T00:12:14.406Z,12.00
2023-05-02T00:14:41.234Z,11.90
2023-05-02T00:17:08.235Z,11.90
2023-05-02T00:19:41.283Z,11.90
2023-05-02T00:22:08.399Z,11.90
2023-05-02T00:24:35.235Z,11.90
2023-05-02T00:27:02.275Z,11.90
2023-05-02T00:29:29.151Z,11.90
2023-05-02T00:31:56.830Z,11.90
2023-05-02T00:34:32.863Z,11.90
2023-05-02T00:37:00.049Z,11.80
2023-05-02T00:39:26.900Z,11.80
2023-05-02T00:42:00.378Z,11.70
2023-05-02T00:44:28.121Z,11.60
2023-05-02T00:46:56.730Z,11.60
2023-05-02T00:49:24.737Z,11.50
2023-05-02T00:51:51.710Z,11.50
2023-05-02T00:54:18.600Z,11.60
2023-05-02T00:56:46.477Z,11.60
2023-05-02T00:59:15.360Z,11.60
2023-05-02T01:02:22.351Z,11.60
2023-05-02T01:05:16.959Z,11.60
2023-05-02T01:08:02.985Z,11.50
2023-05-02T01:10:36.678Z,11.50
2023-05-02T01:13:17.908Z,11.40
2023-05-02T01:15:47.416Z,11.30
2023-05-02T01:18:18.592Z,11.30
2023-05-02T01:20:50.905Z,11.20
2023-05-02T01:23:58.278Z,11.20
2023-05-02T01:26:41.348Z,11.30
2023-05-02T01:29:11.504Z,11.20
2023-05-02T01:31:46.406Z,11.20
2023-05-02T01:34:13.440Z,11.20
2023-05-02T01:36:47.129Z,11.20
2023-05-02T01:39:20.922Z,11.20
2023-05-02T01:41:52.187Z,11.20
2023-05-02T01:44:22.895Z,11.20
2023-05-02T01:46:53.183Z,11.20
2023-05-02T01:49:22.684Z,11.20
2023-05-02T01:51:51.230Z,11.20
2023-05-02T01:54:21.407Z,11.20
2023-05-02T01:56:50.005Z,11.10
2023-05-02T01:59:22.668Z,11.20
2023-05-02T02:01:52.064Z,11.10
2023-05-02T02:04:22.113Z,11.20
2023-05-02T02:07:02.308Z,11.20
2023-05-02T02:09:31.316Z,11.20
2023-05-02T02:12:12.698Z,11.20
2023-05-02T02:14:46.299Z,11.20
2023-05-02T02:17:25.655Z,11.20
2023-05-02T02:19:56.223Z,11.10
2023-05-02T02:22:27.551Z,11.10
2023-05-02T02:24:55.653Z,11.00
2023-05-02T02:27:22.646Z,11.00
2023-05-02T02:29:49.683Z,11.00
2023-05-02T02:32:16.613Z,11.00
2023-05-02T02:34:43.582Z,11.00
2023-05-02T02:37:27.532Z,11.00
2023-05-02T02:40:36.023Z,11.10
2023-05-02T02:43:34.150Z,11.10
2023-05-02T02:46:19.649Z,11.20
2023-05-02T02:49:27.099Z,11.20
2023-05-02T02:52:07.698Z,11.20
2023-05-02T02:55:06.394Z,11.30
2023-05-02T02:57:44.914Z,11.30
2023-05-02T03:00:27.257Z,11.30
2023-05-02T03:02:56.871Z,11.30
2023-05-02T03:05:24.709Z,11.30
2023-05-02T03:07:52.379Z,11.30
2023-05-02T03:10:19.359Z,11.30
2023-05-02T03:12:46.224Z,11.20
2023-05-02T03:15:58.313Z,11.20
2023-05-02T03:18:25.269Z,11.20
2023-05-02T03:20:52.195Z,11.30
2023-05-02T03:23:19.049Z,11.30
2023-05-02T03:25:45.948Z,11.30
2023-05-02T03:28:13.061Z,11.30
2023-05-02T03:30:40.864Z,11.30
2023-05-02T03:33:08.976Z,11.30
2023-05-02T03:35:35.977Z,11.30
2023-05-02T03:38:02.855Z,11.30
2023-05-02T03:40:29.707Z,11.30
2023-05-02T03:42:56.542Z,11.20
2023-05-02T03:45:23.440Z,11.10
2023-05-02T03:47:50.306Z,11.00
2023-05-02T03:50:18.442Z,10.90
2023-05-02T03:52:45.335Z,10.70
2023-05-02T03:55:12.309Z,10.60
2023-05-02T03:57:39.160Z,10.40
2023-05-02T04:00:07.415Z,10.40
2023-05-02T04:02:34.327Z,10.30
2023-05-02T04:05:01.236Z,10.30
2023-05-02T04:07:28.605Z,10.30
2023-05-02T04:09:55.535Z,10.40
2023-05-02T04:12:22.458Z,10.40
2023-05-02T04:14:49.386Z,10.40
2023-05-02T04:17:16.373Z,10.40
2023-05-02T04:19:43.357Z,10.40
2023-05-02T04:22:10.228Z,10.50
2023-05-02T04:24:37.062Z,10.60
2023-05-02T04:27:04.061Z,10.60
2023-05-02T04:29:30.924Z,10.70
2023-05-02T04:31:57.790Z,10.80
2023-05-02T04:34:24.673Z,10.80
2023-05-02T04:36:51.546Z,10.90
2023-05-02T04:39:18.400Z,10.90
2023-05-02T04:41:46.292Z,10.90
2023-05-02T04:44:13.188Z,10.80
2023-05-02T04:46:40.321Z,10.80
2023-05-02T04:49:07.361Z,10.70
2023-05-02T04:51:34.523Z,10.70
2023-05-02T04:54:01.516Z,10.70
2023-05-02T04:56:28.480Z,10.70
2023-05-02T04:58:55.368Z,10.70
2023-05-02T05:01:24.120Z,10.80
2023-05-02T05:03:51.217Z,10.80
2023-05-02T05:06:19.269Z,10.90
2023-05-02T05:08:46.522Z,11.00
2023-05-02T05:11:13.509Z,10.90
2023-05-02T05:13:40.795Z,11.00
2023-05-02T05:16:08.130Z,11.10
2023-05-02T05:18:40.623Z,11.20
2023-05-02T05:21:08.894Z,11.20
2023-05-02T05:23:37.008Z,11.30
2023-05-02T05:26:12.082Z,11.40
2023-05-02T05:28:39.424Z,11.50
2023-05-02T05:31:08.489Z,11.40
2023-05-02T05:33:39.619Z,11.40
2023-05-02T05:36:17.203Z,11.60
2023-05-02T05:38:44.610Z,11.60
2023-05-02T05:41:11.497Z,11.70
2023-05-02T05:43:38.498Z,11.80
2023-05-02T05:46:05.838Z,11.90
2023-05-02T05:48:32.760Z,12.00
2023-05-02T05:51:07.346Z,12.00
2023-05-02T05:53:34.657Z,12.00
2023-05-02T05:56:13.949Z,12.00
2023-05-02T05:58:42.660Z,12.00
2023-05-02T06:01:09.649Z,12.00
2023-05-02T06:03:36.689Z,12.00
2023-05-02T06:06:04.591Z,12.00
2023-05-02T06:08:31.619Z,12.10
2023-05-02T06:10:58.499Z,12.20
2023-05-02T06:13:26.275Z,12.30
2023-05-02T06:15:53.196Z,12.40
2023-05-02T06:18:20.081Z,12.50
2023-05-02T06:20:46.942Z,12.50
2023-05-02T06:23:13.775Z,12.50
2023-05-02T06:25:40.728Z,12.60
2023-05-02T06:28:07.764Z,12.60
2023-05-02T06:30:34.642Z,12.50
2023-05-02T06:33:04.330Z,12.50
2023-05-02T06:35:31.421Z,12.50
2023-05-02T06:37:58.253Z,12.50
2023-05-02T06:40:25.285Z,12.50
2023-05-02T06:42:52.195Z,12.70
2023-05-02T06:45:19.667Z,12.60
2023-05-02T06:47:46.773Z,12.60
2023-05-02T06:50:13.723Z,12.70
2023-05-02T06:52:40.607Z,12.70
2023-05-02T06:55:08.109Z,12.80
2023-05-02T06:57:35.039Z,12.80
2023-05-02T07:00:02.341Z,12.80
2023-05-02T07:02:29.625Z,12.90
2023-05-02T07:04:56.573Z,12.90
2023-05-02T07:07:23.503Z,12.90
2023-05-02T07:09:50.453Z,12.80
2023-05-02T07:12:17.326Z,12.80
2023-05-02T07:14:46.887Z,12.80
2023-05-02T07:17:16.811Z,12.80
2023-05-02T07:19:58.512Z,12.90
2023-05-02T07:22:26.121Z,12.90
2023-05-02T07:25:02.554Z,12.90
2023-05-02T07:27:30.527Z,13.00
2023-05-02T07:29:57.753Z,13.10
2023-05-02T07:32:27.965Z,13.20
2023-05-02T07:34:56.284Z,13.20
2023-05-02T07:37:23.709Z,13.30
2023-05-02T07:39:50.641Z,13.30
2023-05-02T07:42:17.751Z,13.30
2023-05-02T07:44:44.925Z,13.40
2023-05-02T07:47:12.329Z,13.40
2023-05-02T07:49:39.677Z,13.50
2023-05-02T07:52:08.176Z,13.60
2023-05-02T07:54:35.890Z,13.60
2023-05-02T07:57:05.305Z,13.70
2023-05-02T07:59:32.269Z,13.60
2023-05-02T08:01:59.355Z,13.60
2023-05-02T08:04:27.113Z,13.50
2023-05-02T08:06:55.810Z,13.50
2023-05-02T08:09:23.327Z,13.70
2023-05-02T08:11:50.947Z,13.80
2023-05-02T08:14:18.353Z,13.80
2023-05-02T08:16:46.638Z,13.90
2023-05-02T08:19:13.880Z,13.90
2023-05-02T08:21:40.882Z,14.00
2023-05-02T08:24:08.185Z,14.20
2023-05-02T08:26:35.559Z,14.40
2023-05-02T08:29:04.713Z,14.80
2023-05-02T08:31:32.025Z,14.90
2023-05-02T08:33:59.250Z,15.10
2023-05-02T08:36:28.890Z,15.50
2023-05-02T08:38:56.076Z,15.80
2023-05-02T08:41:24.234Z,16.10
2023-05-02T08:43:51.674Z,16.60
2023-05-02T08:46:18.688Z,16.90
2023-05-02T08:48:49.833Z,17.20
2023-05-02T08:53:47.059Z,17.60
2023-05-02T08:56:15.496Z,17.80
2023-05-02T08:58:42.575Z,18.20
2023-05-02T09:01:17.470Z,18.30
2023-05-02T09:03:47.440Z,18.40
2023-05-02T09:06:22.985Z,18.50
2023-05-02T09:08:54.840Z,18.60
2023-05-02T09:11:22.480Z,18.70
2023-05-02T09:13:52.221Z,18.80
2023-05-02T09:16:27.280Z,18.90
2023-05-02T09:18:59.278Z,18.90
2023-05-02T09:21:45.463Z,19.20
2023-05-02T09:24:21.661Z,19.40
2023-05-02T09:27:05.227Z,19.70
2023-05-02T09:29:39.256Z,19.90
2023-05-02T09:32:07.304Z,20.20
2023-05-02T09:34:35.009Z,20.10
2023-05-02T09:37:04.110Z,20.20
2023-05-02T09:39:31.547Z,19.90
2023-05-02T09:41:59.550Z,19.90
2023-05-02T09:44:37.455Z,19.90
2023-05-02T09:47:06.707Z,19.80
2023-05-02T09:50:02.204Z,19.80
2023-05-02T09:52:29.199Z,19.50
2023-05-02T09:54:57.878Z,19.60
2023-05-02T09:57:41.792Z,19.90
2023-05-02T10:00:10.512Z,19.60
2023-05-02T10:02:38.888Z,19.30
2023-05-02T10:05:11.716Z,19.20
2023-05-02T10:07:39.726Z,19.20
2023-05-02T10:10:11.098Z,19.40
2023-05-02T10:12:40.415Z,19.10
2023-05-02T10:15:15.290Z,19.30
2023-05-02T10:17:52.048Z,18.90
2023-05-02T10:20:32.754Z,18.90
2023-05-02T10:23:02.167Z,19.00
2023-05-02T10:25:30.052Z,19.30
2023-05-02T10:28:01.736Z,19.70
2023-05-02T10:30:31.600Z,20.30
2023-05-02T10:33:00.949Z,20.30
2023-05-02T10:35:28.050Z,20.30
2023-05-02T10:37:56.536Z,20.60
2023-05-02T10:40:23.778Z,20.30
2023-05-02T10:42:52.434Z,20.00
2023-05-02T10:45:38.273Z,19.80
2023-05-02T10:48:26.837Z,19.90
2023-05-02T10:51:01.438Z,19.90
2023-05-02T10:53:34.019Z,19.50
2023-05-02T10:56:25.867Z,19.30
2023-05-02T10:59:14.151Z,19.10
2023-05-02T11:01:42.203Z,19.00
2023-05-02T11:04:12.354Z,19.20
2023-05-02T11:06:57.929Z,19.20
2023-05-02T11:09:24.918Z,19.10
2023-05-02T11:11:52.927Z,18.70
2023-05-02T11:14:26.331Z,18.60
2023-05-02T11:17:02.174Z,18.60
2023-05-02T11:19:51.808Z,18.50
2023-05-02T11:22:21.825Z,18.50
2023-05-02T11:24:50.670Z,18.60
2023-05-02T11:27:30.283Z,19.00
2023-05-02T11:30:09.138Z,19.10
2023-05-02T11:32:49.434Z,18.80
2023-05-02T11:35:20.268Z,18.50
2023-05-02T11:37:59.103Z,18.10
2023-05-02T11:40:28.774Z,18.00
2023-05-02T11:42:59.904Z,18.10
2023-05-02T11:45:37.217Z,18.10
2023-05-02T11:48:08.347Z,17.60
2023-05-02T11:50:48.754Z,17.50
2023-05-02T11:53:22.395Z,17.40
2023-05-02T11:56:02.297Z,17.40
2023-05-02T11:58:33.630Z,17.20
2023-05-02T12:01:16.484Z,17.20
2023-05-02T12:03:44.072Z,17.10
2023-05-02T12:06:16.125Z,17.00
2023-05-02T12:08:45.418Z,17.00
2023-05-02T12:11:17.172Z,17.00
2023-05-02T12:13:49.875Z,17.10
2023-05-02T12:16:18.398Z,17.10
2023-05-02T12:18:47.717Z,17.10
2023-05-02T12:21:15.506Z,16.90
2023-05-02T12:23:43.035Z,17.00
2023-05-02T12:26:17.745Z,17.10
2023-05-02T12:28:52.800Z,17.30
2023-05-02T12:31:20.150Z,17.40
2023-05-02T12:33:48.476Z,17.30
2023-05-02T12:36:15.784Z,17.40
2023-05-02T12:38:59.674Z,17.50
2023-05-02T12:41:33.702Z,17.40
2023-05-02T12:44:01.624Z,17.30
2023-05-02T12:46:29.541Z,16.90
2023-05-02T12:49:12.470Z,16.70
2023-05-02T12:51:40.854Z,16.50
2023-05-02T12:54:07.882Z,16.40
2023-05-02T12:56:43.692Z,16.40
2023-05-02T12:59:29.986Z,16.20
2023-05-02T13:01:57.695Z,16.20
2023-05-02T13:04:41.625Z,16.20
2023-05-02T13:07:08.606Z,16.30
2023-05-02T13:09:35.588Z,16.20
2023-05-02T13:12:04.488Z,16.10
2023-05-02T13:14:31.583Z,16.20
2023-05-02T13:16:59.396Z,16.30
2023-05-02T13:19:29.294Z,16.50
2023-05-02T13:21:56.218Z,16.40
2023-05-02T13:24:23.581Z,16.20
2023-05-02T13:26:51.429Z,16.20
2023-05-02T13:29:18.373Z,16.40
2023-05-02T13:31:45.253Z,16.50
2023-05-02T13:34:12.146Z,16.30
2023-05-02T13:36:46.022Z,16.20
2023-05-02T13:39:14.666Z,16.00
2023-05-02T13:41:41.868Z,15.80
2023-05-02T13:44:09.532Z,16.20
2023-05-02T13:46:38.013Z,16.30
2023-05-02T13:49:05.277Z,16.20
2023-05-02T13:51:35.571Z,16.10
2023-05-02T13:54:02.953Z,16.00
2023-05-02T13:56:29.816Z,15.90
2023-05-02T13:58:56.869Z,16.00
2023-05-02T14:01:26.549Z,16.10
2023-05-02T14:03:53.737Z,16.00
2023-05-02T14:06:20.765Z,15.90
2023-05-02T14:08:47.750Z,15.60
2023-05-02T14:11:14.676Z,15.70
2023-05-02T14:13:41.808Z,15.80
2023-05-02T14:16:08.861Z,15.80
2023-05-02T14:18:36.026Z,15.90
2023-05-02T14:21:04.478Z,15.60
2023-05-02T14:23:31.667Z,15.70
2023-05-02T14:25:58.595Z,15.60
2023-05-02T14:28:27.100Z,15.50
2023-05-02T14:30:54.285Z,15.60
2023-05-02T14:33:21.339Z,15.50
2023-05-02T14:35:49.295Z,15.60
2023-05-02T14:38:19.120Z,15.50
2023-05-02T14:40:46.674Z,15.80
2023-05-02T14:43:14.016Z,15.80
2023-05-02T14:45:40.895Z,16.00
2023-05-02T14:48:09.500Z,16.20
2023-05-02T14:50:39.665Z,16.10
2023-05-02T14:53:07.039Z,16.00
2023-05-02T14:55:41.081Z,15.90
2023-05-02T14:58:11.871Z,15.80
2023-05-02T15:03:52.441Z,15.80
2023-05-02T15:06:32.722Z,15.60
2023-05-02T15:08:59.931Z,15.60
2023-05-02T15:12:54.808Z,15.30
2023-05-02T15:15:25.065Z,15.10
2023-05-02T15:17:53.126Z,15.20
2023-05-02T15:20:20.446Z,15.40
2023-05-02T15:22:47.339Z,15.50
2023-05-02T15:25:14.297Z,15.50
2023-05-02T15:27:42.604Z,15.60
2023-05-02T15:30:11.055Z,15.60
2023-05-02T15:32:38.005Z,15.50
2023-05-02T15:39:35.874Z,15.20
2023-05-02T15:42:06.268Z,15.20
2023-05-02T15:44:39.485Z,15.00
2023-05-02T15:47:06.479Z,14.70
2023-05-02T15:49:34.533Z,14.70
2023-05-02T15:52:02.886Z,14.90
2023-05-02T15:54:31.809Z,14.80
2023-05-02T15:56:58.722Z,14.60
2023-05-02T15:59:26.020Z,14.40
2023-05-02T16:01:52.964Z,14.50
2023-05-02T16:04:19.919Z,14.50
2023-05-02T16:06:46.900Z,14.40
2023-05-02T16:09:13.755Z,14.50
2023-05-02T16:11:40.743Z,14.40
2023-05-02T16:14:07.618Z,14.50
2023-05-02T16:16:34.592Z,14.50
2023-05-02T16:23:00.977Z,14.30
2023-05-02T16:25:27.830Z,14.20
2023-05-02T16:28:33.561Z,14.30
2023-05-02T16:31:07.160Z,14.30
2023-05-02T16:33:34.179Z,14.20
2023-05-02T16:37:25.707Z,14.10
2023-05-02T16:39:52.845Z,13.80
2023-05-02T16:42:19.787Z,13.70
2023-05-02T16:44:46.682Z,13.60
2023-05-02T16:47:13.591Z,13.50
2023-05-02T16:49:40.560Z,13.50
2023-05-02T16:52:07.508Z,13.60
2023-05-02T16:54:34.543Z,13.40
2023-05-02T16:57:02.700Z,13.30
2023-05-02T16:59:30.562Z,13.30
2023-05-02T17:01:57.828Z,13.30
2023-05-02T17:04:24.895Z,13.30
2023-05-02T17:06:56.317Z,13.20
2023-05-02T17:09:23.293Z,13.10
2023-05-02T17:11:50.904Z,13.00
2023-05-02T17:14:18.276Z,13.00
2023-05-02T17:16:45.276Z,12.90
2023-05-02T17:19:12.214Z,12.90
2023-05-02T17:21:39.213Z,12.90
2023-05-02T17:24:08.013Z,12.90
2023-05-02T17:26:35.209Z,12.90
2023-05-02T17:29:02.288Z,12.90
2023-05-02T17:31:29.205Z,12.90
2023-05-02T17:33:56.116Z,12.70
2023-05-02T17:36:22.946Z,12.70
2023-05-02T17:38:49.821Z,12.60
2023-05-02T17:41:17.002Z,12.60
2023-05-02T17:43:43.927Z,12.70
2023-05-02T17:46:11.177Z,12.70
2023-05-02T17:48:38.455Z,12.60
2023-05-02T17:51:07.037Z,12.60
2023-05-02T17:53:35.416Z,12.70
2023-05-02T17:56:04.255Z,12.70
2023-05-02T17:58:31.997Z,12.80
2023-05-02T18:01:08.260Z,12.80
2023-05-02T18:03:36.150Z,12.90
2023-05-02T18:06:03.365Z,12.90
2023-05-02T18:08:33.074Z,12.90
2023-05-02T18:11:00.540Z,12.70
2023-05-02T18:13:27.699Z,12.70
2023-05-02T18:16:01.556Z,12.60
2023-05-02T18:18:28.998Z,12.40
2023-05-02T18:20:55.919Z,12.30
2023-05-02T18:23:22.875Z,12.30
2023-05-02T18:25:49.713Z,12.20
2023-05-02T18:28:16.590Z,12.20
2023-05-02T18:30:43.502Z,12.10
2023-05-02T18:33:10.618Z,11.90
2023-05-02T18:35:37.617Z,11.80
2023-05-02T18:38:07.736Z,11.80
2023-05-02T18:40:34.680Z,11.60
2023-05-02T18:43:01.679Z,11.60
2023-05-02T18:45:28.525Z,11.40
2023-05-02T18:47:55.684Z,11.30
2023-05-02T18:50:23.014Z,11.20
2023-05-02T18:52:49.976Z,11.10
2023-05-02T18:55:18.913Z,11.10
2023-05-02T18:57:49.756Z,11.10
2023-05-02T19:00:17.669Z,11.10
2023-05-02T19:02:45.077Z,11.10
2023-05-02T19:05:12.320Z,11.10
2023-05-02T19:07:39.267Z,11.00
2023-05-02T19:10:06.740Z,11.00
2023-05-02T19:12:33.718Z,11.00
2023-05-02T19:15:01.287Z,11.00
2023-05-02T19:17:28.630Z,11.00
2023-05-02T19:19:58.148Z,10.90
2023-05-02T19:22:27.645Z,11.00
2023-05-02T19:24:55.247Z,11.00
2023-05-02T19:27:22.233Z,11.00
2023-05-02T19:29:53.196Z,11.00
2023-05-02T19:32:22.523Z,10.90
2023-05-02T19:34:49.375Z,10.90
2023-05-02T19:37:16.222Z,10.90
2023-05-02T19:39:43.087Z,10.80
2023-05-02T19:42:09.918Z,10.80
2023-05-02T19:44:36.878Z,10.80
2023-05-02T19:47:04.083Z,10.60
2023-05-02T19:49:30.942Z,10.50
2023-05-02T19:51:57.831Z,10.40
2023-05-02T19:54:24.778Z,10.20
2023-05-02T19:56:51.723Z,10.10
2023-05-02T19:59:18.643Z,10.10
2023-05-02T20:01:46.721Z,10.00
2023-05-02T20:04:13.877Z,9.80
2023-05-02T20:06:40.985Z,9.60
2023-05-02T20:09:07.960Z,9.50
2023-05-02T20:11:34.866Z,9.40
2023-05-02T20:14:01.842Z,9.40
2023-05-02T20:16:31.434Z,9.30
2023-05-02T20:18:58.623Z,9.30
2023-05-02T20:21:26.774Z,9.30
2023-05-02T20:23:53.717Z,9.20
2023-05-02T20:26:21.058Z,9.10
2023-05-02T20:28:47.972Z,9.10
2023-05-02T20:31:14.856Z,9.00
2023-05-02T20:33:45.649Z,8.90
2023-05-02T20:36:14.740Z,8.70
2023-05-02T20:38:43.046Z,8.60
2023-05-02T20:41:14.885Z,8.40
2023-05-02T20:43:44.672Z,8.40
2023-05-02T20:46:13.424Z,8.30
2023-05-02T20:48:40.396Z,8.30
2023-05-02T20:51:08.711Z,8.30
2023-05-02T20:53:39.522Z,8.30
2023-05-02T20:56:10.080Z,8.30
2023-05-02T20:58:36.883Z,8.20
2023-05-02T21:01:03.789Z,8.20
2023-05-02T21:03:32.166Z,8.20
2023-05-02T21:06:01.961Z,8.20
2023-05-02T21:08:28.873Z,8.20
2023-05-02T21:10:55.972Z,8.00
2023-05-02T21:13:22.899Z,7.80
2023-05-02T21:15:50.349Z,7.80
2023-05-02T21:18:17.605Z,7.60
2023-05-02T21:20:44.549Z,7.60
2023-05-02T21:23:11.490Z,7.60
2023-05-02T21:25:38.792Z,7.50
2023-05-02T21:28:06.072Z,7.40
2023-05-02T21:30:33.174Z,7.20
2023-05-02T21:33:00.232Z,7.00
2023-05-02T21:35:28.635Z,7.00
2023-05-02T21:37:55.578Z,7.10
2023-05-02T21:40:22.443Z,7.10
2023-05-02T21:42:49.329Z,7.10
2023-05-02T21:45:16.262Z,7.00
2023-05-02T21:47:43.480Z,6.80
2023-05-02T21:50:10.782Z,6.70
2023-05-02T21:52:37.690Z,6.70
2023-05-02T21:55:04.895Z,6.50
2023-05-02T21:57:31.722Z,6.50
2023-05-02T21:59:58.539Z,6.40
2023-05-02T22:02:25.474Z,6.30
2023-05-02T22:04:52.499Z,6.30
2023-05-02T22:07:19.360Z,6.30
2023-05-02T22:09:46.559Z,6.20
2023-05-02T22:12:13.405Z,6.20
2023-05-02T22:14:45.295Z,6.20
2023-05-02T22:17:13.753Z,6.10
2023-05-02T22:19:41.862Z,6.10
2023-05-02T22:22:08.772Z,6.10
2023-05-02T22:24:35.669Z,6.00
2023-05-02T22:27:02.652Z,6.00
2023-05-02T22:29:29.902Z,5.90
2023-05-02T22:31:56.808Z,5.80
2023-05-02T22:34:23.817Z,5.80
2023-05-02T22:36:50.901Z,5.90
2023-05-02T22:39:17.810Z,5.80
2023-05-02T22:41:44.804Z,5.80
2023-05-02T22:44:11.717Z,5.80
2023-05-02T22:46:39.056Z,5.80
2023-05-02T22:49:11.597Z,5.80
2023-05-02T22:51:40.341Z,5.80
2023-05-02T22:54:08.083Z,5.70
2023-05-02T22:56:35.454Z,5.70
2023-05-02T22:59:02.413Z,5.70
2023-05-02T23:01:29.359Z,5.70
2023-05-02T23:03:56.515Z,5.70
2023-05-02T23:06:23.674Z,5.70
2023-05-02T23:08:50.751Z,5.80
2023-05-02T23:11:17.819Z,5.90
2023-05-02T23:13:44.866Z,5.80
2023-05-02T23:16:11.784Z,5.80
2023-05-02T23:18:38.714Z,5.70
2023-05-02T23:21:05.981Z,5.60
2023-05-02T23:23:32.829Z,5.60
2023-05-02T23:25:59.704Z,5.50
2023-05-02T23:28:26.728Z,5.50
2023-05-02T23:30:53.952Z,5.50
2023-05-02T23:33:21.168Z,5.50
2023-05-02T23:35:48.695Z,5.50
2023-05-02T23:38:15.940Z,5.50
2023-05-02T23:40:43.095Z,5.40
2023-05-02T23:43:10.864Z,5.40
2023-05-02T23:45:37.774Z,5.40
2023-05-02T23:48:04.829Z,5.40
2023-05-02T23:50:32.893Z,5.40
2023-05-02T23:52:59.950Z,5.40
2023-05-02T23:55:27.011Z,5.40
2023-05-02T23:57:53.913Z,5.50
